createdAt,value
2018-06-15T00:00:04.885Z,81.00
2018-06-15T00:02:34.674Z,80.80
2018-06-15T00:05:04.049Z,80.80
2018-06-15T00:07:32.854Z,80.90
2018-06-15T00:10:01.741Z,81.00
2018-06-15T00:12:30.278Z,80.60
2018-06-15T00:14:58.692Z,81.30
2018-06-15T00:17:27.182Z,80.80
2018-06-15T00:19:55.538Z,80.40
2018-06-15T00:22:23.924Z,80.70
2018-06-15T00:24:52.437Z,81.00
2018-06-15T00:27:21.032Z,80.90
2018-06-15T00:29:49.484Z,80.90
2018-06-15T00:32:17.956Z,80.90
2018-06-15T00:34:46.726Z,80.80
2018-06-15T00:37:15.141Z,80.80
2018-06-15T00:39:43.528Z,80.80
2018-06-15T00:42:11.915Z,80.90
2018-06-15T00:44:40.282Z,81.00
2018-06-15T00:47:08.690Z,81.10
2018-06-15T00:49:37.120Z,80.90
2018-06-15T00:52:05.558Z,81.00
2018-06-15T00:54:33.850Z,81.70
2018-06-15T00:57:13.604Z,81.10
2018-06-15T00:59:42.206Z,81.10
2018-06-15T01:02:10.589Z,81.00
2018-06-15T01:04:39.180Z,80.90
2018-06-15T01:07:07.668Z,80.80
2018-06-15T01:09:36.138Z,81.10
2018-06-15T01:12:04.722Z,81.10
2018-06-15T01:14:33.072Z,81.00
2018-06-15T01:17:01.472Z,80.90
2018-06-15T01:19:29.828Z,80.90
2018-06-15T01:21:58.411Z,80.80
2018-06-15T01:24:26.917Z,80.90
2018-06-15T01:26:55.296Z,81.40
2018-06-15T01:29:23.831Z,82.20
2018-06-15T01:31:52.210Z,81.40
2018-06-15T01:34:20.637Z,81.50
2018-06-15T01:36:49.051Z,81.20
2018-06-15T01:39:17.396Z,81.10
2018-06-15T01:41:45.772Z,81.40
2018-06-15T01:44:14.240Z,81.20
2018-06-15T01:46:42.588Z,82.10
2018-06-15T01:49:11.009Z,81.30
2018-06-15T01:51:39.426Z,81.30
2018-06-15T01:54:07.818Z,81.30
2018-06-15T01:56:36.528Z,81.30
2018-06-15T01:59:04.893Z,81.50
2018-06-15T02:01:33.339Z,81.50
2018-06-15T02:04:01.955Z,81.20
2018-06-15T02:06:30.400Z,81.20
2018-06-15T02:08:58.828Z,81.50
2018-06-15T02:11:28.461Z,81.40
2018-06-15T02:13:56.965Z,81.30
2018-06-15T02:16:25.421Z,81.40
2018-06-15T02:18:54.399Z,81.30
2018-06-15T02:21:22.890Z,81.40
2018-06-15T02:23:51.358Z,81.40
2018-06-15T02:26:19.748Z,81.40
2018-06-15T02:28:48.278Z,81.40
2018-06-15T02:31:16.650Z,81.60
2018-06-15T02:33:45.117Z,81.20
2018-06-15T02:36:13.603Z,81.30
2018-06-15T02:38:42.074Z,81.10
2018-06-15T02:41:10.513Z,81.30
2018-06-15T02:43:39.250Z,81.40
2018-06-15T02:46:07.636Z,81.20
2018-06-15T02:48:36.106Z,81.60
2018-06-15T02:51:04.772Z,81.60
2018-06-15T02:53:33.111Z,81.70
2018-06-15T02:56:01.513Z,81.80
2018-06-15T02:58:29.904Z,82.00
2018-06-15T03:00:58.302Z,81.80
2018-06-15T03:03:27.076Z,81.70
2018-06-15T03:05:55.433Z,81.60
2018-06-15T03:08:23.834Z,81.70
2018-06-15T03:10:52.276Z,81.50
2018-06-15T03:13:20.922Z,81.90
2018-06-15T03:15:49.309Z,82.10
2018-06-15T03:18:17.691Z,82.00
2018-06-15T03:20:46.076Z,82.10
2018-06-15T03:23:14.484Z,81.90
2018-06-15T03:25:42.949Z,82.30
2018-06-15T03:28:11.344Z,81.40
2018-06-15T03:30:39.799Z,81.50
2018-06-15T03:33:08.193Z,81.50
2018-06-15T03:35:36.662Z,81.50
2018-06-15T03:38:05.014Z,81.50
2018-06-15T03:40:33.425Z,81.10
2018-06-15T03:43:01.880Z,81.40
2018-06-15T03:45:30.278Z,81.50
2018-06-15T03:47:58.813Z,81.50
2018-06-15T03:55:12.054Z,81.60
2018-06-15T03:57:40.429Z,81.70
2018-06-15T04:00:08.978Z,81.80
2018-06-15T04:02:37.416Z,81.30
2018-06-15T04:05:05.974Z,81.40
2018-06-15T04:07:34.370Z,81.50
2018-06-15T04:10:02.653Z,81.60
2018-06-15T04:12:30.981Z,81.40
2018-06-15T04:14:59.423Z,81.30
2018-06-15T04:17:27.891Z,81.50
2018-06-15T04:19:56.185Z,81.50
2018-06-15T04:22:24.572Z,82.20
2018-06-15T04:24:52.963Z,81.40
2018-06-15T04:27:21.296Z,81.30
2018-06-15T04:29:49.785Z,81.40
2018-06-15T04:32:18.213Z,81.40
2018-06-15T04:34:46.646Z,81.70
2018-06-15T04:37:15.073Z,81.60
2018-06-15T04:39:44.153Z,81.10
2018-06-15T04:42:12.461Z,81.30
2018-06-15T04:44:40.897Z,81.20
2018-06-15T04:47:09.303Z,81.10
2018-06-15T04:49:38.086Z,81.10
2018-06-15T04:52:06.672Z,81.30
2018-06-15T04:54:35.113Z,81.40
2018-06-15T04:57:03.842Z,81.50
2018-06-15T04:59:32.360Z,81.50
2018-06-15T05:02:00.712Z,81.50
2018-06-15T05:04:29.083Z,81.60
2018-06-15T05:06:57.421Z,81.50
2018-06-15T05:09:26.053Z,81.50
2018-06-15T05:11:54.493Z,81.80
2018-06-15T05:14:22.832Z,81.80
2018-06-15T05:16:51.171Z,81.50
2018-06-15T05:19:19.610Z,81.40
2018-06-15T05:21:48.080Z,81.60
2018-06-15T05:24:16.810Z,81.80
2018-06-15T05:26:45.273Z,81.50
2018-06-15T05:29:13.666Z,81.30
2018-06-15T05:31:42.224Z,81.00
2018-06-15T05:34:10.670Z,81.00
2018-06-15T05:36:40.202Z,80.90
2018-06-15T05:39:09.954Z,80.90
2018-06-15T05:41:38.532Z,80.90
2018-06-15T05:44:06.959Z,81.00
2018-06-15T05:46:35.265Z,81.00
2018-06-15T05:49:03.884Z,80.20
2018-06-15T05:51:32.598Z,79.80
2018-06-15T05:54:00.950Z,80.00
2018-06-15T05:56:45.660Z,79.80
2018-06-15T05:59:13.944Z,79.70
2018-06-15T06:01:42.228Z,78.70
2018-06-15T06:04:10.739Z,78.70
2018-06-15T06:06:39.052Z,78.90
2018-06-15T06:09:08.755Z,78.80
2018-06-15T06:11:37.485Z,78.30
2018-06-15T06:14:05.835Z,78.40
2018-06-15T06:16:34.389Z,77.50
2018-06-15T06:19:02.959Z,77.80
2018-06-15T06:21:31.248Z,77.50
2018-06-15T06:23:59.800Z,77.70
2018-06-15T06:26:28.548Z,77.10
2018-06-15T06:28:56.952Z,76.90
2018-06-15T06:31:25.875Z,77.20
2018-06-15T06:33:54.352Z,77.50
2018-06-15T06:36:22.668Z,77.40
2018-06-15T06:38:50.933Z,77.30
2018-06-15T06:41:19.205Z,77.00
2018-06-15T06:43:48.685Z,76.50
2018-06-15T06:46:17.376Z,75.80
2018-06-15T06:48:46.083Z,75.70
2018-06-15T06:51:14.485Z,76.20
2018-06-15T06:53:43.292Z,75.80
2018-06-15T06:56:11.641Z,75.90
2018-06-15T06:58:39.991Z,74.30
2018-06-15T07:01:08.336Z,74.20
2018-06-15T07:03:36.600Z,71.70
2018-06-15T07:06:04.920Z,72.60
2018-06-15T07:08:33.261Z,74.10
2018-06-15T07:11:02.004Z,74.10
2018-06-15T07:13:30.929Z,72.90
2018-06-15T07:15:59.247Z,73.60
2018-06-15T07:18:28.450Z,70.10
2018-06-15T07:20:56.838Z,70.80
2018-06-15T07:23:25.189Z,67.70
2018-06-15T07:25:53.512Z,67.20
2018-06-15T07:28:22.149Z,69.50
2018-06-15T07:30:50.478Z,69.70
2018-06-15T07:33:19.124Z,66.80
2018-06-15T07:35:47.484Z,64.50
2018-06-15T07:38:15.771Z,66.00
2018-06-15T07:40:44.465Z,68.10
2018-06-15T07:43:13.006Z,65.60
2018-06-15T07:45:41.345Z,62.40
2018-06-15T07:48:09.628Z,61.10
2018-06-15T07:50:38.304Z,62.80
2018-06-15T07:53:06.637Z,63.20
2018-06-15T07:55:35.004Z,61.20
2018-06-15T07:58:03.470Z,59.60
2018-06-15T08:00:31.848Z,60.40
2018-06-15T08:03:00.123Z,60.50
2018-06-15T08:05:28.387Z,62.70
2018-06-15T08:07:56.694Z,60.90
2018-06-15T08:10:25.039Z,61.00
2018-06-15T08:12:53.349Z,58.50
2018-06-15T08:15:21.764Z,58.90
2018-06-15T08:17:50.088Z,58.80
2018-06-15T08:20:18.452Z,60.00
2018-06-15T08:22:47.018Z,61.70
2018-06-15T08:25:18.417Z,61.30
2018-06-15T08:27:46.832Z,61.50
2018-06-15T08:30:15.221Z,62.20
2018-06-15T08:32:43.600Z,60.20
2018-06-15T08:35:11.950Z,60.40
2018-06-15T08:37:40.318Z,61.00
2018-06-15T08:40:08.714Z,59.40
2018-06-15T08:42:37.015Z,59.80
2018-06-15T08:45:05.537Z,57.40
2018-06-15T08:47:34.057Z,57.40
2018-06-15T08:50:02.441Z,59.40
2018-06-15T08:52:30.773Z,58.50
2018-06-15T08:54:59.044Z,56.90
2018-06-15T08:57:27.326Z,54.70
2018-06-15T08:59:55.624Z,55.40
2018-06-15T09:02:24.116Z,54.80
2018-06-15T09:04:52.402Z,55.70
2018-06-15T09:07:20.777Z,56.90
2018-06-15T09:09:49.335Z,57.70
2018-06-15T09:12:17.998Z,57.30
2018-06-15T09:14:46.368Z,58.60
2018-06-15T09:17:14.802Z,57.70
2018-06-15T09:19:43.041Z,57.50
2018-06-15T09:22:11.457Z,56.50
2018-06-15T09:24:39.739Z,57.00
2018-06-15T09:27:08.121Z,56.60
2018-06-15T09:29:36.449Z,54.00
2018-06-15T09:32:04.777Z,54.00
2018-06-15T09:34:33.072Z,53.20
2018-06-15T09:37:01.804Z,53.60
2018-06-15T09:39:30.275Z,55.80
2018-06-15T09:41:58.718Z,56.00
2018-06-15T09:44:27.101Z,55.50
2018-06-15T09:46:55.573Z,55.30
2018-06-15T09:49:24.022Z,55.50
2018-06-15T09:51:52.352Z,54.80
2018-06-15T09:54:20.663Z,54.20
2018-06-15T09:56:49.064Z,54.90
2018-06-15T09:59:17.673Z,55.20
2018-06-15T10:01:46.018Z,53.80
2018-06-15T10:04:14.284Z,53.00
2018-06-15T10:06:42.552Z,52.20
2018-06-15T10:09:11.067Z,52.70
2018-06-15T10:11:39.379Z,53.20
2018-06-15T10:14:07.701Z,52.00
2018-06-15T10:16:36.004Z,51.30
2018-06-15T10:19:04.384Z,52.70
2018-06-15T10:21:32.696Z,52.90
2018-06-15T10:24:01.035Z,53.30
2018-06-15T10:26:29.345Z,51.50
2018-06-15T10:28:57.801Z,51.90
2018-06-15T10:31:26.176Z,51.80
2018-06-15T10:33:55.043Z,53.00
2018-06-15T10:36:23.533Z,52.10
2018-06-15T10:38:51.864Z,52.60
2018-06-15T10:41:20.288Z,50.10
2018-06-15T10:43:48.513Z,50.60
2018-06-15T10:46:17.040Z,52.00
2018-06-15T10:48:45.369Z,52.00
2018-06-15T10:51:14.025Z,53.00
2018-06-15T10:53:42.471Z,51.50
2018-06-15T10:56:10.753Z,51.50
2018-06-15T10:58:39.041Z,49.80
2018-06-15T11:01:07.320Z,49.00
2018-06-15T11:03:35.632Z,49.30
2018-06-15T11:06:04.002Z,50.20
2018-06-15T11:08:32.309Z,48.70
2018-06-15T11:11:00.560Z,48.90
2018-06-15T11:13:28.965Z,47.60
2018-06-15T11:15:57.437Z,48.00
2018-06-15T11:18:25.768Z,46.10
2018-06-15T11:20:54.849Z,46.40
2018-06-15T11:23:23.235Z,46.50
2018-06-15T11:25:51.516Z,46.80
2018-06-15T11:28:20.265Z,43.60
2018-06-15T11:30:48.784Z,45.60
2018-06-15T11:33:17.168Z,44.60
2018-06-15T11:35:45.785Z,45.70
2018-06-15T11:38:14.065Z,44.40
2018-06-15T11:40:42.584Z,44.60
2018-06-15T11:43:10.862Z,45.80
2018-06-15T11:45:39.272Z,46.50
2018-06-15T11:48:07.652Z,45.40
2018-06-15T11:50:36.140Z,45.30
2018-06-15T11:53:04.414Z,46.70
2018-06-15T11:55:32.777Z,45.30
2018-06-15T11:58:01.084Z,46.80
2018-06-15T12:00:33.359Z,47.00
2018-06-15T12:03:01.718Z,44.70
2018-06-15T12:05:30.076Z,44.90
2018-06-15T12:07:58.410Z,45.80
2018-06-15T12:10:26.732Z,46.20
2018-06-15T12:12:54.963Z,47.30
2018-06-15T12:15:23.842Z,47.70
2018-06-15T12:17:52.193Z,46.60
2018-06-15T12:23:01.968Z,48.00
2018-06-15T12:25:30.317Z,45.80
2018-06-15T12:28:00.976Z,45.30
2018-06-15T12:30:30.676Z,46.60
2018-06-15T12:32:59.080Z,47.50
2018-06-15T12:35:27.448Z,47.20
2018-06-15T12:37:55.840Z,46.10
2018-06-15T12:40:24.252Z,47.50
2018-06-15T12:42:52.660Z,45.50
2018-06-15T12:45:21.821Z,45.10
2018-06-15T12:47:50.199Z,43.90
2018-06-15T12:50:23.844Z,45.30
2018-06-15T12:52:52.288Z,44.10
2018-06-15T12:55:21.624Z,43.60
2018-06-15T12:57:49.925Z,44.70
2018-06-15T13:00:19.126Z,44.70
2018-06-15T13:02:47.460Z,44.00
2018-06-15T13:05:16.640Z,44.60
2018-06-15T13:07:45.212Z,44.60
2018-06-15T13:10:13.551Z,44.10
2018-06-15T13:12:41.957Z,44.30
2018-06-15T13:15:10.315Z,44.80
2018-06-15T13:17:38.672Z,44.10
2018-06-15T13:20:08.677Z,44.20
2018-06-15T13:22:37.122Z,45.10
2018-06-15T13:25:05.362Z,41.80
2018-06-15T13:27:35.368Z,43.50
2018-06-15T13:30:03.657Z,44.40
2018-06-15T13:32:32.081Z,45.40
2018-06-15T13:35:00.427Z,43.50
2018-06-15T13:37:28.781Z,43.10
2018-06-15T13:39:57.092Z,43.20
2018-06-15T13:42:25.531Z,42.90
2018-06-15T13:44:54.704Z,43.60
2018-06-15T13:47:23.054Z,41.60
2018-06-15T13:49:51.545Z,43.80
2018-06-15T13:52:20.884Z,43.40
2018-06-15T13:54:49.650Z,42.50
2018-06-15T13:57:18.715Z,43.00
2018-06-15T13:59:46.994Z,42.00
2018-06-15T14:02:15.418Z,41.30
2018-06-15T14:04:43.976Z,41.90
2018-06-15T14:07:12.331Z,40.80
2018-06-15T14:09:40.787Z,42.40
2018-06-15T14:12:09.913Z,42.30
2018-06-15T14:14:38.501Z,40.00
2018-06-15T14:17:18.736Z,41.40
2018-06-15T14:19:47.116Z,39.80
2018-06-15T14:22:17.772Z,40.50
2018-06-15T14:24:47.150Z,40.60
2018-06-15T14:27:15.822Z,40.90
2018-06-15T14:29:44.311Z,39.70
2018-06-15T14:32:12.732Z,39.10
2018-06-15T14:34:41.480Z,40.10
2018-06-15T14:37:09.847Z,40.20
2018-06-15T14:39:38.377Z,39.90
2018-06-15T14:42:06.825Z,41.30
2018-06-15T14:44:35.528Z,41.50
2018-06-15T14:47:04.650Z,41.30
2018-06-15T14:49:33.019Z,41.80
2018-06-15T14:52:01.356Z,42.00
2018-06-15T14:54:29.785Z,42.40
2018-06-15T14:56:58.146Z,42.10
2018-06-15T14:59:26.678Z,40.70
2018-06-15T15:01:55.245Z,42.80
2018-06-15T15:04:23.720Z,41.80
2018-06-15T15:06:52.319Z,41.10
2018-06-15T15:09:20.789Z,39.20
2018-06-15T15:11:49.463Z,40.10
2018-06-15T15:14:17.922Z,39.70
2018-06-15T15:16:46.472Z,40.80
2018-06-15T15:19:14.973Z,41.40
2018-06-15T15:21:43.341Z,40.10
2018-06-15T15:24:11.705Z,40.10
2018-06-15T15:26:40.033Z,40.00
2018-06-15T15:29:08.595Z,41.50
2018-06-15T15:31:36.950Z,41.10
2018-06-15T15:34:05.309Z,40.50
2018-06-15T15:36:33.733Z,41.30
2018-06-15T15:39:02.136Z,40.60
2018-06-15T15:41:30.455Z,41.50
2018-06-15T15:43:58.808Z,41.60
2018-06-15T15:46:27.153Z,41.70
2018-06-15T15:48:55.697Z,41.30
2018-06-15T15:51:24.242Z,41.10
2018-06-15T15:53:52.619Z,41.70
2018-06-15T15:56:21.124Z,41.70
2018-06-15T15:58:49.604Z,41.00
2018-06-15T16:01:18.435Z,42.70
2018-06-15T16:03:47.503Z,42.20
2018-06-15T16:06:15.906Z,41.50
2018-06-15T16:08:44.826Z,41.90
2018-06-15T16:11:13.320Z,42.70
2018-06-15T16:13:42.482Z,42.90
2018-06-15T16:16:11.072Z,41.20
2018-06-15T16:21:13.252Z,41.90
2018-06-15T16:23:41.789Z,42.10
2018-06-15T16:26:12.184Z,41.60
2018-06-15T16:28:40.703Z,42.30
2018-06-15T16:31:09.436Z,42.80
2018-06-15T16:33:38.391Z,42.70
2018-06-15T16:36:06.962Z,43.10
2018-06-15T16:38:36.333Z,43.10
2018-06-15T16:41:04.797Z,43.20
2018-06-15T16:43:33.419Z,43.80
2018-06-15T16:46:02.581Z,43.10
2018-06-15T16:48:31.197Z,44.30
2018-06-15T16:51:03.660Z,42.90
2018-06-15T16:53:32.934Z,43.90
2018-06-15T16:56:02.531Z,42.40
2018-06-15T16:58:32.318Z,43.00
2018-06-15T17:01:01.879Z,43.50
2018-06-15T17:03:31.685Z,42.90
2018-06-15T17:06:00.161Z,44.30
2018-06-15T17:08:28.676Z,44.20
2018-06-15T17:10:57.102Z,44.70
2018-06-15T17:13:25.613Z,45.00
2018-06-15T17:15:54.005Z,44.70
2018-06-15T17:18:22.334Z,43.60
2018-06-15T17:20:50.701Z,44.60
2018-06-15T17:23:19.470Z,44.80
2018-06-15T17:25:47.827Z,44.80
2018-06-15T17:28:16.158Z,44.40
2018-06-15T17:30:44.532Z,44.40
2018-06-15T17:33:13.022Z,45.50
2018-06-15T17:35:41.477Z,45.50
2018-06-15T17:38:09.971Z,45.40
2018-06-15T17:40:38.642Z,45.60
2018-06-15T17:43:07.153Z,45.30
2018-06-15T17:45:35.706Z,45.50
2018-06-15T17:48:04.518Z,45.70
2018-06-15T17:50:34.049Z,45.00
2018-06-15T17:53:02.660Z,43.70
2018-06-15T17:55:31.200Z,43.00
2018-06-15T17:57:59.680Z,43.90
2018-06-15T18:00:28.543Z,43.40
2018-06-15T18:02:57.118Z,44.20
2018-06-15T18:05:25.805Z,44.70
2018-06-15T18:07:54.492Z,44.90
2018-06-15T18:10:24.400Z,45.70
2018-06-15T18:12:53.677Z,45.70
2018-06-15T18:15:22.033Z,46.30
2018-06-15T18:17:51.367Z,45.00
2018-06-15T18:20:21.160Z,45.00
2018-06-15T18:22:51.963Z,46.10
2018-06-15T18:25:20.880Z,45.10
2018-06-15T18:27:49.327Z,46.40
2018-06-15T18:30:22.675Z,46.20
2018-06-15T18:32:53.876Z,46.30
2018-06-15T18:35:22.264Z,46.70
2018-06-15T18:37:50.684Z,46.70
2018-06-15T18:40:19.046Z,46.20
2018-06-15T18:42:47.606Z,46.10
2018-06-15T18:45:16.189Z,45.60
2018-06-15T18:47:44.584Z,45.70
2018-06-15T18:50:14.314Z,45.40
2018-06-15T18:52:42.814Z,45.40
2018-06-15T18:55:11.286Z,45.50
2018-06-15T18:57:40.226Z,45.60
2018-06-15T19:00:08.684Z,45.90
2018-06-15T19:02:37.080Z,46.50
2018-06-15T19:05:07.972Z,46.10
2018-06-15T19:07:36.368Z,46.60
2018-06-15T19:10:04.717Z,46.60
2018-06-15T19:12:33.915Z,46.90
2018-06-15T19:15:02.521Z,47.20
2018-06-15T19:17:30.996Z,47.20
2018-06-15T19:19:59.357Z,47.40
2018-06-15T19:22:27.717Z,47.10
2018-06-15T19:24:56.212Z,47.50
2018-06-15T19:27:24.712Z,47.60
2018-06-15T19:29:53.076Z,47.60
2018-06-15T19:32:21.640Z,47.50
2018-06-15T19:34:49.999Z,47.60
2018-06-15T19:47:35.490Z,47.30
2018-06-15T19:52:54.252Z,47.60
2018-06-15T19:55:41.600Z,48.10
2018-06-15T19:58:10.210Z,48.00
2018-06-15T20:00:52.332Z,48.20
2018-06-15T20:03:22.721Z,48.80
2018-06-15T20:06:03.404Z,49.40
2018-06-15T20:08:40.300Z,50.00
2018-06-15T20:11:08.804Z,51.30
2018-06-15T20:13:55.143Z,50.10
2018-06-15T20:16:26.604Z,51.20
2018-06-15T20:18:55.112Z,52.10
2018-06-15T20:21:25.864Z,52.30
2018-06-15T20:23:58.923Z,51.60
2018-06-15T20:29:32.553Z,52.10
2018-06-15T20:32:01.357Z,51.90
2018-06-15T20:34:29.889Z,52.20
2018-06-15T20:36:58.467Z,52.40
2018-06-15T20:39:26.997Z,52.80
2018-06-15T20:41:55.587Z,52.20
2018-06-15T20:44:24.115Z,53.30
2018-06-15T20:46:52.710Z,52.80
2018-06-15T20:49:21.152Z,52.40
2018-06-15T20:51:50.913Z,52.70
2018-06-15T20:54:19.431Z,52.10
2018-06-15T20:56:48.021Z,52.90
2018-06-15T20:59:16.563Z,52.70
2018-06-15T21:01:45.950Z,52.70
2018-06-15T21:04:14.417Z,52.90
2018-06-15T21:06:43.228Z,52.60
2018-06-15T21:09:11.882Z,51.90
2018-06-15T21:11:40.289Z,53.10
2018-06-15T21:14:09.024Z,53.10
2018-06-15T21:16:37.517Z,52.50
2018-06-15T21:19:06.325Z,52.30
2018-06-15T21:21:34.698Z,52.50
2018-06-15T21:24:03.206Z,52.90
2018-06-15T21:26:32.049Z,53.10
2018-06-15T21:29:01.407Z,53.30
2018-06-15T21:31:29.937Z,53.50
2018-06-15T21:33:58.412Z,53.30
2018-06-15T21:36:26.908Z,52.90
2018-06-15T21:38:55.328Z,53.50
2018-06-15T21:41:23.793Z,53.10
2018-06-15T21:43:52.300Z,52.00
2018-06-15T21:46:20.781Z,53.50
2018-06-15T21:48:49.137Z,53.30
2018-06-15T21:51:17.537Z,54.20
2018-06-15T21:53:46.073Z,53.10
2018-06-15T21:56:14.625Z,53.30
2018-06-15T21:58:43.113Z,54.10
2018-06-15T22:01:11.527Z,54.10
2018-06-15T22:03:40.102Z,54.30
2018-06-15T22:06:08.532Z,54.40
2018-06-15T22:08:36.970Z,54.30
2018-06-15T22:11:05.772Z,53.70
2018-06-15T22:13:34.273Z,54.00
2018-06-15T22:16:02.672Z,54.10
2018-06-15T22:18:31.256Z,54.40
2018-06-15T22:20:59.690Z,53.50
2018-06-15T22:23:28.060Z,54.10
2018-06-15T22:25:56.630Z,53.80
2018-06-15T22:28:25.921Z,54.10
2018-06-15T22:30:54.338Z,53.90
2018-06-15T22:33:22.884Z,54.30
2018-06-15T22:35:51.249Z,54.40
2018-06-15T22:38:19.789Z,54.10
2018-06-15T22:40:48.213Z,54.30
2018-06-15T22:43:16.712Z,54.70
2018-06-15T22:45:45.264Z,54.70
2018-06-15T22:48:13.644Z,54.90
2018-06-15T22:50:42.061Z,54.50
2018-06-15T22:53:10.549Z,54.80
2018-06-15T22:55:38.856Z,54.70
2018-06-15T22:58:07.300Z,55.10
2018-06-15T23:00:35.751Z,55.20
2018-06-15T23:03:04.210Z,55.30
2018-06-15T23:05:32.617Z,55.10
2018-06-15T23:08:00.992Z,55.10
2018-06-15T23:10:29.435Z,55.10
2018-06-15T23:12:57.853Z,55.60
2018-06-15T23:15:26.277Z,55.20
2018-06-15T23:17:54.884Z,55.30
2018-06-15T23:20:23.417Z,55.40
2018-06-15T23:22:51.871Z,55.80
2018-06-15T23:25:20.229Z,55.70
2018-06-15T23:27:48.701Z,56.20
2018-06-15T23:30:17.181Z,56.10
2018-06-15T23:32:45.715Z,55.90
2018-06-15T23:35:14.134Z,55.90
2018-06-15T23:37:42.528Z,55.60
2018-06-15T23:40:10.981Z,56.30
2018-06-15T23:42:39.476Z,55.50
2018-06-15T23:45:07.879Z,55.80
2018-06-15T23:47:36.268Z,56.00
2018-06-15T23:50:04.808Z,55.90
2018-06-15T23:52:33.262Z,55.90
2018-06-15T23:55:01.606Z,55.20
2018-06-15T23:57:29.978Z,55.70
2018-06-15T23:59:58.421Z,55.10
